createdAt,value
2023-06-20T00:00:45.590Z,21.37
2023-06-20T00:01:45.558Z,21.29
2023-06-20T00:02:45.546Z,21.26
2023-06-20T00:03:45.545Z,21.22
2023-06-20T00:04:45.498Z,21.15
2023-06-20T00:05:45.482Z,21.10
2023-06-20T00:06:45.464Z,21.05
2023-06-20T00:07:45.439Z,21.00
2023-06-20T00:08:45.437Z,20.93
2023-06-20T00:09:45.441Z,20.88
2023-06-20T00:10:45.421Z,20.82
2023-06-20T00:11:45.403Z,20.73
2023-06-20T00:12:45.380Z,20.68
2023-06-20T00:13:45.358Z,20.66
2023-06-20T00:14:45.369Z,20.66
2023-06-20T00:15:45.363Z,20.64
2023-06-20T00:16:45.348Z,20.60
2023-06-20T00:17:45.355Z,20.59
2023-06-20T00:18:45.300Z,20.58
2023-06-20T00:19:45.297Z,20.56
2023-06-20T00:20:45.294Z,20.49
2023-06-20T00:21:45.260Z,20.48
2023-06-20T00:22:45.240Z,20.44
2023-06-20T00:23:45.229Z,20.42
2023-06-20T00:24:45.297Z,20.39
2023-06-20T00:25:45.216Z,20.42
2023-06-20T00:26:45.186Z,20.42
2023-06-20T00:27:45.170Z,20.42
2023-06-20T00:28:45.196Z,20.46
2023-06-20T00:29:45.161Z,20.44
2023-06-20T00:30:45.157Z,20.44
2023-06-20T00:31:45.116Z,20.44
2023-06-20T00:32:45.162Z,20.46
2023-06-20T00:33:45.164Z,20.48
2023-06-20T00:34:45.082Z,20.46
2023-06-20T00:35:45.104Z,20.44
2023-06-20T00:36:45.058Z,20.42
2023-06-20T00:37:45.038Z,20.40
2023-06-20T00:38:45.060Z,20.39
2023-06-20T00:39:45.027Z,20.36
2023-06-20T00:40:45.008Z,20.33
2023-06-20T00:41:44.987Z,20.33
2023-06-20T00:42:44.979Z,20.27
2023-06-20T00:43:44.982Z,20.26
2023-06-20T00:44:44.954Z,20.27
2023-06-20T00:45:44.946Z,20.22
2023-06-20T00:46:44.921Z,20.24
2023-06-20T00:47:44.940Z,20.22
2023-06-20T00:48:44.920Z,20.27
2023-06-20T00:49:44.876Z,20.29
2023-06-20T00:50:44.872Z,20.32
2023-06-20T00:51:44.874Z,20.32
2023-06-20T00:52:44.859Z,20.32
2023-06-20T00:53:44.843Z,20.34
2023-06-20T00:54:44.822Z,20.33
2023-06-20T00:55:44.791Z,20.36
2023-06-20T00:56:44.791Z,20.33
2023-06-20T00:57:44.789Z,20.26
2023-06-20T00:58:44.763Z,20.19
2023-06-20T00:59:44.749Z,20.18
2023-06-20T01:00:44.726Z,20.18
2023-06-20T01:01:44.800Z,20.19
2023-06-20T01:02:44.911Z,20.22
2023-06-20T01:03:44.907Z,20.22
2023-06-20T01:04:44.683Z,20.22
2023-06-20T01:05:44.666Z,20.24
2023-06-20T01:06:44.677Z,20.22
2023-06-20T01:07:44.659Z,20.21
2023-06-20T01:08:44.631Z,20.17
2023-06-20T01:09:44.619Z,20.19
2023-06-20T01:10:44.604Z,20.21
2023-06-20T01:11:44.609Z,20.21
2023-06-20T01:12:44.580Z,20.19
2023-06-20T01:13:44.565Z,20.19
2023-06-20T01:14:44.530Z,20.21
2023-06-20T01:15:44.584Z,20.19
2023-06-20T01:16:44.538Z,20.17
2023-06-20T01:17:44.536Z,20.15
2023-06-20T01:18:44.487Z,20.18
2023-06-20T01:19:44.536Z,20.18
2023-06-20T01:20:44.472Z,20.15
2023-06-20T01:21:44.463Z,20.17
2023-06-20T01:22:44.428Z,20.17
2023-06-20T01:23:44.431Z,20.12
2023-06-20T01:24:44.555Z,20.15
2023-06-20T01:25:44.419Z,20.12
2023-06-20T01:26:44.398Z,20.15
2023-06-20T01:27:44.372Z,20.12
2023-06-20T01:28:44.355Z,20.10
2023-06-20T01:29:44.357Z,20.07
2023-06-20T01:30:44.349Z,20.04
2023-06-20T01:31:44.319Z,20.07
2023-06-20T01:32:44.333Z,20.07
2023-06-20T01:33:44.351Z,20.07
2023-06-20T01:34:44.270Z,20.04
2023-06-20T01:35:44.278Z,19.97
2023-06-20T01:36:44.285Z,19.85
2023-06-20T01:37:44.238Z,19.79
2023-06-20T01:38:44.226Z,19.79
2023-06-20T01:39:44.228Z,19.78
2023-06-20T01:40:44.250Z,19.81
2023-06-20T01:41:44.187Z,19.81
2023-06-20T01:42:44.169Z,19.82
2023-06-20T01:43:44.154Z,19.82
2023-06-20T01:44:44.174Z,19.84
2023-06-20T01:45:44.141Z,19.87
2023-06-20T01:46:44.180Z,19.90
2023-06-20T01:47:44.149Z,19.92
2023-06-20T01:48:44.448Z,19.92
2023-06-20T01:49:44.108Z,19.89
2023-06-20T01:50:44.058Z,19.87
2023-06-20T01:51:44.050Z,19.89
2023-06-20T01:52:44.034Z,19.85
2023-06-20T01:53:44.034Z,19.79
2023-06-20T01:54:44.019Z,19.78
2023-06-20T01:55:43.990Z,19.78
2023-06-20T01:56:43.959Z,19.77
2023-06-20T01:57:43.960Z,19.74
2023-06-20T01:58:43.957Z,19.66
2023-06-20T01:59:44.007Z,19.56
2023-06-20T02:00:43.925Z,19.53
2023-06-20T02:01:43.914Z,19.55
2023-06-20T02:02:43.916Z,19.57
2023-06-20T02:03:43.924Z,19.62
2023-06-20T02:04:43.853Z,19.67
2023-06-20T02:05:43.881Z,19.72
2023-06-20T02:06:43.835Z,19.75
2023-06-20T02:07:43.906Z,19.78
2023-06-20T02:08:43.824Z,19.84
2023-06-20T02:09:43.868Z,19.89
2023-06-20T02:10:43.786Z,19.90
2023-06-20T02:11:43.772Z,19.90
2023-06-20T02:12:43.806Z,19.93
2023-06-20T02:13:43.791Z,19.94
2023-06-20T02:14:43.741Z,19.94
2023-06-20T02:15:43.745Z,19.93
2023-06-20T02:16:43.747Z,19.93
2023-06-20T02:17:43.804Z,19.92
2023-06-20T02:18:43.679Z,19.93
2023-06-20T02:19:43.683Z,19.94
2023-06-20T02:20:43.648Z,19.94
2023-06-20T02:21:43.656Z,19.96
2023-06-20T02:22:43.656Z,19.97
2023-06-20T02:23:43.610Z,19.96
2023-06-20T02:24:43.604Z,19.96
2023-06-20T02:25:43.592Z,19.99
2023-06-20T02:26:43.578Z,19.99
2023-06-20T02:27:43.586Z,19.96
2023-06-20T02:28:43.567Z,19.94
2023-06-20T02:29:43.551Z,19.94
2023-06-20T02:30:43.514Z,19.94
2023-06-20T02:31:43.552Z,19.93
2023-06-20T02:32:43.491Z,19.94
2023-06-20T02:33:43.473Z,19.96
2023-06-20T02:34:43.463Z,19.96
2023-06-20T02:35:43.449Z,19.94
2023-06-20T02:36:43.446Z,19.93
2023-06-20T02:37:43.417Z,19.92
2023-06-20T02:38:43.405Z,19.89
2023-06-20T02:39:43.394Z,19.84
2023-06-20T02:40:43.385Z,19.81
2023-06-20T02:41:43.388Z,19.78
2023-06-20T02:42:45.982Z,19.77
2023-06-20T02:43:43.348Z,19.74
2023-06-20T02:44:43.325Z,19.75
2023-06-20T02:45:43.365Z,19.74
2023-06-20T02:46:43.370Z,19.74
2023-06-20T02:47:43.328Z,19.77
2023-06-20T02:48:43.273Z,19.74
2023-06-20T02:49:43.242Z,19.72
2023-06-20T02:50:43.262Z,19.72
2023-06-20T02:51:43.227Z,19.70
2023-06-20T02:52:43.206Z,19.66
2023-06-20T02:53:43.207Z,19.66
2023-06-20T02:54:43.222Z,19.66
2023-06-20T02:55:43.212Z,19.67
2023-06-20T02:56:43.153Z,19.70
2023-06-20T02:57:43.170Z,19.71
2023-06-20T02:58:43.136Z,19.71
2023-06-20T02:59:43.162Z,19.72
2023-06-20T03:00:43.128Z,19.72
2023-06-20T03:01:43.135Z,19.75
2023-06-20T03:02:43.196Z,19.78
2023-06-20T03:03:43.264Z,19.78
2023-06-20T03:04:43.075Z,19.78
2023-06-20T03:05:43.089Z,19.78
2023-06-20T03:06:43.029Z,19.78
2023-06-20T03:07:43.017Z,19.78
2023-06-20T03:08:42.994Z,19.84
2023-06-20T03:09:43.031Z,19.81
2023-06-20T03:10:42.998Z,19.82
2023-06-20T03:11:42.967Z,19.81
2023-06-20T03:12:42.988Z,19.82
2023-06-20T03:13:42.981Z,19.84
2023-06-20T03:14:42.949Z,19.85
2023-06-20T03:15:42.945Z,19.87
2023-06-20T03:16:42.938Z,19.90
2023-06-20T03:17:42.913Z,19.90
2023-06-20T03:18:42.909Z,19.90
2023-06-20T03:19:42.859Z,19.90
2023-06-20T03:20:42.833Z,19.92
2023-06-20T03:21:42.857Z,19.90
2023-06-20T03:22:42.843Z,19.90
2023-06-20T03:23:42.835Z,19.85
2023-06-20T03:24:43.004Z,19.82
2023-06-20T03:25:42.766Z,19.81
2023-06-20T03:26:42.754Z,19.82
2023-06-20T03:27:42.775Z,19.82
2023-06-20T03:28:42.748Z,19.84
2023-06-20T03:29:42.719Z,19.84
2023-06-20T03:30:42.708Z,19.87
2023-06-20T03:31:42.843Z,19.85
2023-06-20T03:32:42.729Z,19.85
2023-06-20T03:33:42.691Z,19.87
2023-06-20T03:34:42.647Z,19.89
2023-06-20T03:35:42.648Z,19.85
2023-06-20T03:36:42.628Z,19.85
2023-06-20T03:37:42.642Z,19.85
2023-06-20T03:38:42.612Z,19.87
2023-06-20T03:39:42.589Z,19.87
2023-06-20T03:40:42.585Z,19.89
2023-06-20T03:41:42.574Z,19.92
2023-06-20T03:42:42.568Z,19.92
2023-06-20T03:43:42.572Z,19.93
2023-06-20T03:44:42.532Z,19.94
2023-06-20T03:45:42.535Z,19.92
2023-06-20T03:46:42.523Z,19.87
2023-06-20T03:47:42.532Z,19.84
2023-06-20T03:48:42.472Z,19.87
2023-06-20T03:49:44.891Z,19.87
2023-06-20T03:50:42.447Z,19.87
2023-06-20T03:51:42.474Z,19.90
2023-06-20T03:52:42.428Z,19.92
2023-06-20T03:53:42.405Z,19.90
2023-06-20T03:54:42.392Z,19.90
2023-06-20T03:55:42.391Z,19.89
2023-06-20T03:56:42.386Z,19.85
2023-06-20T03:57:42.450Z,19.84
2023-06-20T03:58:42.351Z,19.84
2023-06-20T04:00:48.284Z,19.85
2023-06-20T04:01:48.259Z,19.82
2023-06-20T04:02:48.399Z,19.84
2023-06-20T04:03:48.263Z,19.84
2023-06-20T04:04:48.199Z,19.84
2023-06-20T04:05:48.355Z,19.82
2023-06-20T04:06:48.186Z,19.79
2023-06-20T04:07:48.167Z,19.78
2023-06-20T04:08:48.174Z,19.78
2023-06-20T04:09:48.139Z,19.79
2023-06-20T04:10:48.143Z,19.82
2023-06-20T04:11:48.125Z,19.85
2023-06-20T04:12:48.089Z,19.84
2023-06-20T04:13:48.080Z,19.84
2023-06-20T04:14:48.067Z,19.85
2023-06-20T04:15:48.105Z,19.85
2023-06-20T04:16:48.044Z,19.85
2023-06-20T04:17:48.099Z,19.85
2023-06-20T04:18:48.014Z,19.84
2023-06-20T04:19:48.037Z,19.84
2023-06-20T04:20:48.064Z,19.82
2023-06-20T04:21:47.999Z,19.79
2023-06-20T04:22:48.003Z,19.78
2023-06-20T04:23:47.953Z,19.79
2023-06-20T04:24:47.984Z,19.81
2023-06-20T04:25:47.951Z,19.81
2023-06-20T04:26:47.909Z,19.81
2023-06-20T04:27:47.896Z,19.82
2023-06-20T04:28:47.875Z,19.72
2023-06-20T04:29:47.883Z,19.70
2023-06-20T04:30:47.853Z,19.71
2023-06-20T04:31:47.858Z,19.70
2023-06-20T04:32:47.870Z,19.72
2023-06-20T04:33:47.806Z,19.72
2023-06-20T04:34:47.811Z,19.71
2023-06-20T04:35:47.785Z,19.66
2023-06-20T04:36:47.774Z,19.63
2023-06-20T04:37:47.751Z,19.64
2023-06-20T04:38:47.760Z,19.64
2023-06-20T04:39:47.804Z,19.64
2023-06-20T04:40:47.722Z,19.70
2023-06-20T04:41:47.709Z,19.72
2023-06-20T04:42:47.704Z,19.74
2023-06-20T04:43:47.694Z,19.74
2023-06-20T04:44:47.669Z,19.75
2023-06-20T04:45:47.654Z,19.75
2023-06-20T04:46:47.632Z,19.77
2023-06-20T04:47:47.907Z,19.77
2023-06-20T04:48:47.652Z,19.81
2023-06-20T04:49:47.604Z,19.82
2023-06-20T04:50:47.570Z,19.85
2023-06-20T04:51:47.574Z,19.90
2023-06-20T04:52:47.603Z,19.90
2023-06-20T04:53:48.725Z,19.92
2023-06-20T04:54:47.537Z,19.93
2023-06-20T04:55:47.539Z,19.94
2023-06-20T04:56:47.490Z,19.96
2023-06-20T04:57:47.508Z,19.97
2023-06-20T04:58:47.509Z,20.00
2023-06-20T04:59:47.488Z,20.03
2023-06-20T05:00:47.473Z,20.04
2023-06-20T05:01:47.456Z,20.04
2023-06-20T05:02:47.509Z,20.07
2023-06-20T05:03:49.548Z,20.08
2023-06-20T05:04:47.383Z,20.03
2023-06-20T05:05:47.507Z,20.00
2023-06-20T05:06:47.364Z,19.97
2023-06-20T05:07:47.368Z,19.97
2023-06-20T05:08:47.378Z,19.97
2023-06-20T05:09:47.380Z,19.96
2023-06-20T05:10:47.322Z,19.99
2023-06-20T05:11:47.320Z,20.02
2023-06-20T05:12:47.314Z,19.99
2023-06-20T05:13:47.290Z,19.96
2023-06-20T05:14:47.271Z,19.96
2023-06-20T05:15:47.308Z,19.90
2023-06-20T05:16:47.233Z,19.89
2023-06-20T05:17:47.284Z,19.89
2023-06-20T05:18:47.220Z,19.84
2023-06-20T05:19:47.215Z,19.82
2023-06-20T05:20:47.165Z,19.81
2023-06-20T05:21:47.186Z,19.84
2023-06-20T05:22:47.183Z,19.87
2023-06-20T05:23:47.230Z,19.84
2023-06-20T05:24:47.252Z,19.89
2023-06-20T05:25:47.121Z,19.89
2023-06-20T05:26:47.124Z,19.93
2023-06-20T05:27:47.093Z,19.96
2023-06-20T05:28:47.071Z,19.97
2023-06-20T05:29:47.055Z,19.99
2023-06-20T05:30:47.040Z,19.99
2023-06-20T05:31:47.119Z,20.00
2023-06-20T05:32:47.207Z,20.02
2023-06-20T05:33:47.010Z,20.04
2023-06-20T05:34:47.001Z,20.07
2023-06-20T05:35:46.970Z,20.08
2023-06-20T05:36:47.200Z,20.08
2023-06-20T05:37:46.950Z,20.07
2023-06-20T05:38:46.934Z,20.10
2023-06-20T05:39:46.954Z,20.11
2023-06-20T05:40:46.917Z,20.08
2023-06-20T05:41:46.908Z,20.08
2023-06-20T05:42:46.912Z,20.11
2023-06-20T05:43:46.881Z,20.12
2023-06-20T05:44:46.870Z,20.08
2023-06-20T05:45:46.848Z,20.07
2023-06-20T05:46:46.870Z,20.07
2023-06-20T05:47:46.874Z,20.08
2023-06-20T05:48:46.849Z,20.07
2023-06-20T05:49:46.797Z,20.08
2023-06-20T05:50:46.801Z,20.08
2023-06-20T05:51:46.788Z,20.08
2023-06-20T05:52:46.755Z,20.08
2023-06-20T05:53:46.754Z,20.07
2023-06-20T05:54:46.733Z,20.07
2023-06-20T05:55:46.714Z,20.07
2023-06-20T05:56:46.700Z,20.02
2023-06-20T05:57:46.686Z,20.02
2023-06-20T05:58:46.734Z,20.02
2023-06-20T05:59:46.673Z,20.00
2023-06-20T06:00:46.647Z,20.04
2023-06-20T06:01:46.628Z,20.07
2023-06-20T06:02:46.923Z,20.07
2023-06-20T06:03:46.753Z,20.10
2023-06-20T06:04:46.646Z,20.12
2023-06-20T06:05:46.575Z,20.12
2023-06-20T06:06:46.570Z,20.04
2023-06-20T06:07:46.562Z,20.04
2023-06-20T06:08:46.570Z,20.07
2023-06-20T06:09:48.147Z,20.10
2023-06-20T06:10:46.507Z,20.11
2023-06-20T06:11:46.508Z,20.08
2023-06-20T06:12:46.521Z,20.12
2023-06-20T06:13:46.473Z,20.15
2023-06-20T06:14:46.555Z,20.15
2023-06-20T06:15:59.332Z,20.18
2023-06-20T06:16:47.527Z,20.19
2023-06-20T06:17:46.479Z,20.19
2023-06-20T06:18:46.429Z,20.26
2023-06-20T06:19:46.389Z,20.27
2023-06-20T06:20:46.403Z,20.32
2023-06-20T06:21:46.401Z,20.37
2023-06-20T06:22:46.347Z,20.36
2023-06-20T06:23:46.318Z,20.33
2023-06-20T06:24:46.475Z,20.30
2023-06-20T06:25:46.302Z,20.30
2023-06-20T06:26:46.302Z,20.30
2023-06-20T06:27:46.297Z,20.30
2023-06-20T06:28:46.270Z,20.30
2023-06-20T06:29:46.349Z,20.34
2023-06-20T06:30:46.303Z,20.34
2023-06-20T06:31:46.255Z,20.36
2023-06-20T06:32:46.260Z,20.40
2023-06-20T06:33:46.205Z,20.46
2023-06-20T06:34:46.195Z,20.48
2023-06-20T06:35:46.206Z,20.49
2023-06-20T06:36:46.160Z,20.52
2023-06-20T06:37:46.148Z,20.58
2023-06-20T06:38:46.147Z,20.63
2023-06-20T06:39:46.119Z,20.66
2023-06-20T06:40:46.151Z,20.73
2023-06-20T06:41:46.092Z,20.75
2023-06-20T06:42:46.091Z,20.74
2023-06-20T06:43:46.070Z,20.75
2023-06-20T06:44:46.095Z,20.75
2023-06-20T06:45:46.062Z,20.83
2023-06-20T06:46:46.102Z,20.88
2023-06-20T06:47:46.086Z,20.93
2023-06-20T06:48:46.026Z,21.00
2023-06-20T06:49:46.018Z,21.03
2023-06-20T06:50:45.982Z,21.07
2023-06-20T06:51:46.617Z,21.10
2023-06-20T06:52:45.960Z,21.14
2023-06-20T06:53:45.964Z,21.17
2023-06-20T06:54:45.966Z,21.22
2023-06-20T06:55:45.914Z,21.25
2023-06-20T06:56:45.902Z,21.28
2023-06-20T06:57:45.890Z,21.30
2023-06-20T06:58:45.885Z,21.30
2023-06-20T06:59:45.886Z,21.33
2023-06-20T07:00:45.915Z,21.37
2023-06-20T07:01:45.969Z,21.41
2023-06-20T07:02:45.896Z,21.47
2023-06-20T07:03:45.923Z,21.48
2023-06-20T07:04:45.837Z,21.50
2023-06-20T07:05:45.773Z,21.51
2023-06-20T07:06:45.787Z,21.53
2023-06-20T07:07:48.756Z,21.54
2023-06-20T07:08:45.758Z,21.56
2023-06-20T07:09:45.731Z,21.58
2023-06-20T07:10:45.711Z,21.58
2023-06-20T07:11:45.687Z,21.58
2023-06-20T07:12:45.676Z,21.59
2023-06-20T07:13:45.708Z,21.63
2023-06-20T07:14:45.662Z,21.65
2023-06-20T07:15:45.639Z,21.68
2023-06-20T07:16:59.852Z,21.69
2023-06-20T07:17:46.692Z,21.70
2023-06-20T07:18:45.627Z,21.74
2023-06-20T07:19:45.599Z,21.75
2023-06-20T07:20:45.580Z,21.77
2023-06-20T07:21:45.560Z,21.80
2023-06-20T07:22:45.582Z,21.80
2023-06-20T07:23:45.553Z,21.77
2023-06-20T07:24:47.761Z,21.75
2023-06-20T07:25:45.510Z,21.75
2023-06-20T07:26:45.514Z,21.77
2023-06-20T07:27:45.574Z,21.81
2023-06-20T07:28:45.486Z,21.85
2023-06-20T07:29:45.479Z,21.91
2023-06-20T07:30:45.456Z,21.96
2023-06-20T07:31:45.497Z,21.99
2023-06-20T07:32:45.494Z,22.03
2023-06-20T07:33:45.405Z,22.07
2023-06-20T07:34:45.393Z,22.14
2023-06-20T07:35:45.396Z,22.18
2023-06-20T07:36:45.386Z,22.22
2023-06-20T07:37:45.353Z,22.30
2023-06-20T07:38:45.351Z,22.33
2023-06-20T07:39:45.356Z,22.34
2023-06-20T07:40:45.454Z,22.37
2023-06-20T07:41:45.354Z,22.38
2023-06-20T07:42:45.293Z,22.41
2023-06-20T07:43:45.280Z,22.40
2023-06-20T07:44:45.270Z,22.40
2023-06-20T07:45:45.321Z,22.41
2023-06-20T07:46:45.251Z,22.49
2023-06-20T07:47:45.265Z,22.49
2023-06-20T07:48:45.236Z,22.47
2023-06-20T07:49:45.211Z,22.49
2023-06-20T07:50:45.212Z,22.51
2023-06-20T07:51:45.192Z,22.47
2023-06-20T07:52:45.167Z,22.47
2023-06-20T07:53:45.160Z,22.47
2023-06-20T07:54:45.144Z,22.46
2023-06-20T07:55:45.163Z,22.47
2023-06-20T07:56:45.120Z,22.51
2023-06-20T07:57:45.096Z,22.52
2023-06-20T07:58:45.118Z,22.55
2023-06-20T07:59:45.076Z,22.58
2023-06-20T08:00:45.080Z,22.61
2023-06-20T08:01:45.250Z,22.62
2023-06-20T08:02:45.134Z,22.63
2023-06-20T08:03:45.241Z,22.65
2023-06-20T08:04:45.029Z,22.68
2023-06-20T08:05:45.024Z,22.71
2023-06-20T08:06:44.998Z,22.76
2023-06-20T08:07:46.843Z,22.77
2023-06-20T08:08:44.967Z,22.80
2023-06-20T08:09:44.968Z,22.83
2023-06-20T08:10:44.934Z,22.84
2023-06-20T08:11:44.929Z,22.91
2023-06-20T08:12:44.917Z,22.92
2023-06-20T08:13:44.893Z,22.95
2023-06-20T08:14:44.898Z,22.93
2023-06-20T08:15:44.906Z,22.95
2023-06-20T08:16:44.864Z,22.93
2023-06-20T08:17:44.915Z,22.89
2023-06-20T08:18:44.829Z,22.88
2023-06-20T08:19:44.836Z,22.91
2023-06-20T08:20:44.806Z,22.96
2023-06-20T08:21:44.793Z,23.01
2023-06-20T08:22:44.823Z,23.04
2023-06-20T08:23:44.775Z,23.06
2023-06-20T08:24:44.909Z,23.07
2023-06-20T08:25:44.761Z,23.10
2023-06-20T08:26:44.825Z,23.14
2023-06-20T08:27:44.731Z,23.17
2023-06-20T08:28:44.713Z,23.21
2023-06-20T08:29:44.666Z,23.23
2023-06-20T08:30:44.671Z,23.25
2023-06-20T08:31:44.744Z,23.28
2023-06-20T08:32:44.674Z,23.28
2023-06-20T08:33:44.636Z,23.29
2023-06-20T08:34:44.631Z,23.32
2023-06-20T08:35:44.603Z,23.32
2023-06-20T08:36:44.661Z,23.33
2023-06-20T08:37:44.616Z,23.36
2023-06-20T08:38:44.585Z,23.39
2023-06-20T08:39:44.553Z,23.42
2023-06-20T08:40:44.543Z,23.44
2023-06-20T08:41:44.526Z,23.45
2023-06-20T08:42:44.563Z,23.45
2023-06-20T08:43:44.505Z,23.48
2023-06-20T08:44:56.869Z,23.48
2023-06-20T08:45:45.484Z,23.52
2023-06-20T08:46:44.511Z,23.56
2023-06-20T08:47:44.484Z,23.58
2023-06-20T08:48:44.448Z,23.59
2023-06-20T08:49:44.443Z,23.64
2023-06-20T08:50:44.433Z,23.70
2023-06-20T08:51:44.399Z,23.74
2023-06-20T08:52:44.410Z,23.81
2023-06-20T08:53:44.374Z,23.82
2023-06-20T08:54:44.367Z,23.85
2023-06-20T08:55:44.345Z,23.88
2023-06-20T08:56:44.357Z,23.92
2023-06-20T08:57:44.349Z,23.95
2023-06-20T08:58:44.333Z,23.99
2023-06-20T08:59:44.293Z,23.99
2023-06-20T09:00:44.340Z,23.96
2023-06-20T09:01:44.340Z,23.96
2023-06-20T09:02:44.324Z,23.94
2023-06-20T09:03:44.306Z,23.94
2023-06-20T09:04:44.239Z,23.94
2023-06-20T09:05:44.232Z,23.92
2023-06-20T09:06:44.254Z,23.92
2023-06-20T09:07:44.204Z,23.92
2023-06-20T09:08:44.185Z,23.94
2023-06-20T09:09:44.165Z,23.96
2023-06-20T09:10:44.191Z,23.96
2023-06-20T09:11:44.154Z,23.99
2023-06-20T09:12:44.135Z,23.99
2023-06-20T09:13:44.116Z,24.01
2023-06-20T09:14:44.185Z,24.04
2023-06-20T09:15:44.115Z,24.06
2023-06-20T09:16:44.196Z,24.07
2023-06-20T09:17:44.091Z,24.09
2023-06-20T09:18:44.058Z,24.14
2023-06-20T09:19:44.058Z,24.18
2023-06-20T09:20:44.055Z,24.22
2023-06-20T09:21:44.016Z,24.24
2023-06-20T09:22:44.018Z,24.25
2023-06-20T09:23:43.984Z,24.26
2023-06-20T09:24:44.180Z,24.28
2023-06-20T09:25:43.971Z,24.31
2023-06-20T09:26:43.958Z,24.34
2023-06-20T09:27:43.939Z,24.37
2023-06-20T09:28:43.928Z,24.38
2023-06-20T09:29:43.971Z,24.41
2023-06-20T09:30:43.937Z,24.41
2023-06-20T09:31:43.896Z,24.43
2023-06-20T09:32:43.927Z,24.46
2023-06-20T09:33:43.862Z,24.50
2023-06-20T09:34:43.863Z,24.53
2023-06-20T09:35:43.844Z,24.56
2023-06-20T09:36:43.806Z,24.56
2023-06-20T09:37:43.808Z,24.59
2023-06-20T09:38:43.802Z,24.59
2023-06-20T09:39:43.805Z,24.61
2023-06-20T09:40:43.776Z,24.61
2023-06-20T09:41:43.751Z,24.63
2023-06-20T09:42:43.745Z,24.65
2023-06-20T09:43:44.069Z,24.66
2023-06-20T09:44:43.721Z,24.65
2023-06-20T09:45:43.726Z,24.66
2023-06-20T09:46:43.701Z,24.69
2023-06-20T09:47:43.764Z,24.74
2023-06-20T09:48:43.669Z,24.75
2023-06-20T09:49:43.645Z,24.77
2023-06-20T09:50:43.638Z,24.75
2023-06-20T09:51:43.619Z,24.79
2023-06-20T09:52:43.586Z,24.79
2023-06-20T09:53:43.599Z,24.78
2023-06-20T09:54:43.565Z,24.78
2023-06-20T09:55:43.568Z,24.78
2023-06-20T09:56:43.535Z,24.78
2023-06-20T09:57:43.526Z,24.82
2023-06-20T09:58:43.532Z,24.82
2023-06-20T09:59:43.536Z,24.84
2023-06-20T10:00:50.642Z,24.86
2023-06-20T10:01:43.486Z,24.93
2023-06-20T10:02:43.549Z,24.97
2023-06-20T10:03:43.564Z,25.01
2023-06-20T10:04:43.434Z,25.06
2023-06-20T10:05:43.433Z,25.14
2023-06-20T10:06:43.431Z,25.19
2023-06-20T10:07:43.428Z,25.24
2023-06-20T10:08:43.400Z,25.29
2023-06-20T10:09:43.371Z,25.31
2023-06-20T10:10:43.380Z,25.34
2023-06-20T10:11:43.346Z,25.39
2023-06-20T10:12:43.357Z,25.41
2023-06-20T10:13:43.327Z,25.44
2023-06-20T10:14:43.297Z,25.48
2023-06-20T10:15:43.369Z,25.52
2023-06-20T10:16:43.268Z,25.55
2023-06-20T10:17:43.408Z,25.61
2023-06-20T10:18:43.334Z,25.67
2023-06-20T10:19:43.245Z,25.68
2023-06-20T10:20:43.241Z,25.74
2023-06-20T10:21:43.199Z,25.77
2023-06-20T10:22:43.219Z,25.81
2023-06-20T10:23:43.251Z,25.86
2023-06-20T10:24:43.270Z,25.91
2023-06-20T10:25:43.166Z,25.95
2023-06-20T10:26:43.145Z,25.99
2023-06-20T10:27:43.155Z,26.03
2023-06-20T10:28:43.112Z,26.06
2023-06-20T10:29:43.125Z,26.07
2023-06-20T10:30:43.096Z,26.06
2023-06-20T10:31:43.105Z,26.08
2023-06-20T10:32:43.124Z,26.08
2023-06-20T10:33:43.048Z,26.03
2023-06-20T10:34:43.039Z,25.96
2023-06-20T10:35:43.027Z,25.92
2023-06-20T10:36:43.030Z,25.92
2023-06-20T10:37:43.044Z,25.91
2023-06-20T10:38:45.435Z,25.93
2023-06-20T10:39:42.989Z,25.96
2023-06-20T10:40:42.966Z,26.01
2023-06-20T10:41:42.973Z,26.04
2023-06-20T10:42:42.963Z,26.08
2023-06-20T10:43:42.926Z,26.13
2023-06-20T10:44:42.900Z,26.18
2023-06-20T10:45:42.992Z,26.23
2023-06-20T10:46:42.988Z,26.24
2023-06-20T10:47:42.911Z,26.27
2023-06-20T10:48:42.857Z,26.27
2023-06-20T10:49:42.870Z,26.29
2023-06-20T10:50:42.871Z,26.31
2023-06-20T10:51:42.851Z,26.36
2023-06-20T10:52:42.804Z,26.42
2023-06-20T10:53:42.788Z,26.44
2023-06-20T10:54:42.772Z,26.46
2023-06-20T10:55:42.780Z,26.51
2023-06-20T10:56:42.747Z,26.53
2023-06-20T10:57:42.739Z,26.59
2023-06-20T10:58:42.721Z,26.64
2023-06-20T10:59:42.730Z,26.67
2023-06-20T11:00:42.716Z,26.71
2023-06-20T11:01:42.726Z,26.74
2023-06-20T11:02:42.792Z,26.78
2023-06-20T11:03:42.681Z,26.83
2023-06-20T11:04:42.670Z,26.89
2023-06-20T11:05:42.633Z,26.92
2023-06-20T11:06:42.624Z,26.98
2023-06-20T11:07:51.471Z,27.05
2023-06-20T11:08:43.629Z,27.10
2023-06-20T11:09:42.604Z,27.16
2023-06-20T11:10:42.579Z,27.20
2023-06-20T11:11:42.551Z,27.20
2023-06-20T11:12:44.492Z,27.15
2023-06-20T11:13:42.563Z,27.20
2023-06-20T11:14:42.546Z,27.25
2023-06-20T11:15:42.557Z,27.28
2023-06-20T11:16:42.508Z,27.29
2023-06-20T11:17:42.586Z,27.34
2023-06-20T11:18:42.559Z,27.35
2023-06-20T11:19:42.506Z,27.33
2023-06-20T11:20:42.440Z,27.29
2023-06-20T11:21:42.434Z,27.18
2023-06-20T11:22:42.428Z,27.07
2023-06-20T11:23:42.485Z,27.07
2023-06-20T11:24:42.446Z,27.03
2023-06-20T11:25:42.413Z,26.93
2023-06-20T11:26:42.362Z,26.86
2023-06-20T11:27:42.395Z,26.92
2023-06-20T11:28:42.352Z,26.96
2023-06-20T11:29:42.344Z,27.00
2023-06-20T11:30:42.336Z,27.03
2023-06-20T11:31:42.294Z,27.07
2023-06-20T11:32:42.372Z,27.11
2023-06-20T11:33:42.322Z,27.18
2023-06-20T11:34:42.249Z,27.22
2023-06-20T11:35:42.237Z,27.29
2023-06-20T11:36:42.228Z,27.37
2023-06-20T11:37:42.240Z,27.44
2023-06-20T11:38:42.222Z,27.52
2023-06-20T11:39:45.234Z,27.58
2023-06-20T11:40:43.196Z,27.64
2023-06-20T11:41:42.204Z,27.68
2023-06-20T11:42:42.171Z,27.72
2023-06-20T11:43:42.154Z,27.73
2023-06-20T11:44:42.187Z,27.76
2023-06-20T11:45:42.136Z,27.72
2023-06-20T11:46:42.174Z,27.78
2023-06-20T11:47:42.133Z,27.83
2023-06-20T11:48:42.090Z,27.90
2023-06-20T11:49:42.078Z,27.95
2023-06-20T11:50:44.149Z,28.00
2023-06-20T11:51:42.049Z,28.04
2023-06-20T11:52:42.016Z,28.09
2023-06-20T11:53:42.013Z,28.16
2023-06-20T11:54:42.016Z,28.23
2023-06-20T11:55:41.983Z,28.34
2023-06-20T11:56:41.990Z,28.35
2023-06-20T11:57:41.962Z,28.43
2023-06-20T11:58:41.948Z,28.41
2023-06-20T11:59:41.930Z,28.45
2023-06-20T12:00:41.940Z,28.49
2023-06-20T12:01:41.949Z,28.50
2023-06-20T12:02:41.898Z,28.52
2023-06-20T12:03:41.948Z,28.53
2023-06-20T12:04:41.867Z,28.52
2023-06-20T12:05:41.869Z,28.55
2023-06-20T12:06:41.837Z,28.59
2023-06-20T12:07:41.830Z,28.64
2023-06-20T12:08:41.807Z,28.71
2023-06-20T12:09:41.879Z,28.74
2023-06-20T12:10:41.810Z,28.80
2023-06-20T12:11:41.773Z,28.80
2023-06-20T12:12:41.764Z,28.82
2023-06-20T12:13:41.750Z,28.87
2023-06-20T12:14:41.738Z,28.90
2023-06-20T12:15:41.734Z,28.96
2023-06-20T12:16:41.708Z,28.94
2023-06-20T12:17:41.720Z,29.00
2023-06-20T12:18:41.686Z,28.93
2023-06-20T12:19:41.700Z,28.83
2023-06-20T12:20:50.942Z,28.72
2023-06-20T12:21:42.648Z,28.60
2023-06-20T12:22:43.674Z,28.52
2023-06-20T12:23:41.618Z,28.41
2023-06-20T12:24:41.764Z,28.31
2023-06-20T12:25:41.588Z,28.22
2023-06-20T12:26:41.579Z,28.18
2023-06-20T12:27:41.577Z,28.22
2023-06-20T12:28:41.560Z,28.30
2023-06-20T12:29:41.668Z,28.34
2023-06-20T12:30:41.526Z,28.40
2023-06-20T12:31:41.613Z,28.47
2023-06-20T12:32:41.551Z,28.57
2023-06-20T12:33:41.527Z,28.64
2023-06-20T12:34:41.685Z,28.74
2023-06-20T12:35:41.541Z,28.84
2023-06-20T12:36:41.444Z,28.94
2023-06-20T12:37:41.523Z,29.03
2023-06-20T12:38:41.461Z,29.12
2023-06-20T12:39:41.555Z,29.15
2023-06-20T12:40:41.443Z,29.18
2023-06-20T12:41:41.397Z,29.21
2023-06-20T12:42:41.504Z,29.27
2023-06-20T12:43:41.461Z,29.32
2023-06-20T12:44:41.475Z,29.24
2023-06-20T12:45:41.361Z,29.27
2023-06-20T12:46:41.338Z,29.37
2023-06-20T12:47:41.420Z,29.43
2023-06-20T12:48:41.325Z,29.40
2023-06-20T12:49:41.291Z,29.32
2023-06-20T12:50:41.395Z,29.25
2023-06-20T12:51:41.261Z,29.21
2023-06-20T12:52:45.543Z,29.10
2023-06-20T12:53:41.240Z,29.02